sensor_id;sensor_type;location;lat;lon;timestamp;P1;durP1;ratioP1;P2;durP2;ratioP2
65182;SDS011;51771;51.068;-1.780;2022-09-11T07:32:20;12.13;;;6.70;;
65182;SDS011;51771;51.068;-1.780;2022-09-11T07:34:46;9.45;;;5.72;;
65182;SDS011;51771;51.068;-1.780;2022-09-11T07:37:11;11.23;;;6.00;;
65182;SDS011;51771;51.068;-1.780;2022-09-11T07:39:37;5.57;;;4.57;;
65182;SDS011;51771;51.068;-1.780;2022-09-11T07:42:02;6.87;;;5.70;;
65182;SDS011;51771;51.068;-1.780;2022-09-11T07:44:27;4.40;;;4.00;;
65182;SDS011;51771;51.068;-1.780;2022-09-11T07:46:52;4.57;;;3.47;;
65182;SDS011;51771;51.068;-1.780;2022-09-11T07:49:18;9.90;;;4.37;;
65182;SDS011;51771;51.068;-1.780;2022-09-11T07:51:43;9.13;;;3.80;;
65182;SDS011;51771;51.068;-1.780;2022-09-11T07:54:08;7.88;;;4.32;;
65182;SDS011;51771;51.068;-1.780;2022-09-11T07:56:34;8.98;;;5.00;;
65182;SDS011;51771;51.068;-1.780;2022-09-11T07:59:00;8.05;;;4.72;;
65182;SDS011;51771;51.068;-1.780;2022-09-11T08:01:26;13.43;;;4.97;;
65182;SDS011;51771;51.068;-1.780;2022-09-11T08:03:53;10.02;;;5.13;;
65182;SDS011;51771;51.068;-1.780;2022-09-11T08:06:20;12.75;;;4.90;;
65182;SDS011;51771;51.068;-1.780;2022-09-11T08:08:50;5.70;;;5.00;;
65182;SDS011;51771;51.068;-1.780;2022-09-11T08:11:16;16.25;;;5.50;;
65182;SDS011;51771;51.068;-1.780;2022-09-11T08:13:42;13.00;;;6.40;;
65182;SDS011;51771;51.068;-1.780;2022-09-11T08:16:07;14.82;;;5.25;;
65182;SDS011;51771;51.068;-1.780;2022-09-11T08:18:33;9.05;;;5.25;;
65182;SDS011;51771;51.068;-1.780;2022-09-11T08:21:05;13.30;;;5.25;;
65182;SDS011;51771;51.068;-1.780;2022-09-11T08:23:32;9.13;;;5.95;;
65182;SDS011;51771;51.068;-1.780;2022-09-11T08:26:04;8.02;;;6.15;;
65182;SDS011;51771;51.068;-1.780;2022-09-11T08:28:29;8.60;;;6.35;;
65182;SDS011;51771;51.068;-1.780;2022-09-11T08:30:55;6.55;;;4.93;;
65182;SDS011;51771;51.068;-1.780;2022-09-11T08:33:21;15.38;;;5.47;;
65182;SDS011;51771;51.068;-1.780;2022-09-11T08:35:46;7.27;;;5.47;;
65182;SDS011;51771;51.068;-1.780;2022-09-11T08:38:11;12.50;;;6.03;;
65182;SDS011;51771;51.068;-1.780;2022-09-11T08:40:36;7.77;;;5.53;;
65182;SDS011;51771;51.068;-1.780;2022-09-11T08:43:02;8.43;;;5.70;;
65182;SDS011;51771;51.068;-1.780;2022-09-11T08:45:30;12.40;;;5.07;;
65182;SDS011;51771;51.068;-1.780;2022-09-11T08:47:57;8.63;;;5.55;;
65182;SDS011;51771;51.068;-1.780;2022-09-11T08:50:31;15.63;;;5.55;;
65182;SDS011;51771;51.068;-1.780;2022-09-11T08:52:58;19.05;;;6.85;;
65182;SDS011;51771;51.068;-1.780;2022-09-11T08:55:31;6.85;;;4.90;;
65182;SDS011;51771;51.068;-1.780;2022-09-11T08:58:00;11.30;;;6.25;;
65182;SDS011;51771;51.068;-1.780;2022-09-11T09:00:32;9.70;;;4.90;;
65182;SDS011;51771;51.068;-1.780;2022-09-11T09:05:41;12.65;;;5.03;;
65182;SDS011;51771;51.068;-1.780;2022-09-11T09:08:16;10.00;;;4.88;;
65182;SDS011;51771;51.068;-1.780;2022-09-11T09:10:47;9.35;;;5.20;;
65182;SDS011;51771;51.068;-1.780;2022-09-11T09:13:30;11.82;;;4.65;;
65182;SDS011;51771;51.068;-1.780;2022-09-11T09:18:32;6.93;;;4.50;;
65182;SDS011;51771;51.068;-1.780;2022-09-11T09:21:12;6.32;;;3.85;;
65182;SDS011;51771;51.068;-1.780;2022-09-11T09:23:40;13.30;;;4.57;;
65182;SDS011;51771;51.068;-1.780;2022-09-11T09:26:09;7.15;;;4.30;;
65182;SDS011;51771;51.068;-1.780;2022-09-11T09:28:40;4.68;;;4.03;;
65182;SDS011;51771;51.068;-1.780;2022-09-11T09:31:07;11.18;;;4.70;;
65182;SDS011;51771;51.068;-1.780;2022-09-11T09:33:35;8.77;;;3.90;;
65182;SDS011;51771;51.068;-1.780;2022-09-11T09:38:37;13.27;;;4.10;;
65182;SDS011;51771;51.068;-1.780;2022-09-11T09:43:49;10.10;;;3.55;;
65182;SDS011;51771;51.068;-1.780;2022-09-11T09:47:00;6.07;;;2.53;;
65182;SDS011;51771;51.068;-1.780;2022-09-11T09:49:09;7.05;;;3.00;;
65182;SDS011;51771;51.068;-1.780;2022-09-11T09:51:36;7.25;;;4.07;;
65182;SDS011;51771;51.068;-1.780;2022-09-11T09:54:01;5.47;;;3.58;;
65182;SDS011;51771;51.068;-1.780;2022-09-11T09:56:27;5.13;;;2.72;;
65182;SDS011;51771;51.068;-1.780;2022-09-11T09:59:01;16.75;;;2.50;;
65182;SDS011;51771;51.068;-1.780;2022-09-11T10:04:24;6.45;;;2.25;;
65182;SDS011;51771;51.068;-1.780;2022-09-11T10:06:51;4.07;;;1.63;;
65182;SDS011;51771;51.068;-1.780;2022-09-11T10:11:42;3.13;;;1.57;;
65182;SDS011;51771;51.068;-1.780;2022-09-11T10:14:09;5.05;;;1.95;;
65182;SDS011;51771;51.068;-1.780;2022-09-11T10:16:39;1.67;;;1.13;;
65182;SDS011;51771;51.068;-1.780;2022-09-11T10:19:04;1.27;;;1.00;;
65182;SDS011;51771;51.068;-1.780;2022-09-11T10:26:42;7.53;;;1.77;;
65182;SDS011;51771;51.068;-1.780;2022-09-11T10:29:14;6.00;;;1.83;;
65182;SDS011;51771;51.068;-1.780;2022-09-11T10:31:40;3.50;;;2.05;;
65182;SDS011;51771;51.068;-1.780;2022-09-11T10:34:13;1.98;;;1.45;;
65182;SDS011;51771;51.068;-1.780;2022-09-11T10:36:39;2.28;;;1.30;;
65182;SDS011;51771;51.068;-1.780;2022-09-11T10:39:15;2.55;;;1.42;;
65182;SDS011;51771;51.068;-1.780;2022-09-11T10:41:45;4.85;;;1.55;;
65182;SDS011;51771;51.068;-1.780;2022-09-11T10:44:12;1.95;;;1.25;;
65182;SDS011;51771;51.068;-1.780;2022-09-11T10:46:40;5.68;;;1.60;;
65182;SDS011;51771;51.068;-1.780;2022-09-11T10:51:40;1.33;;;0.80;;
65182;SDS011;51771;51.068;-1.780;2022-09-11T10:54:25;3.38;;;1.35;;
65182;SDS011;51771;51.068;-1.780;2022-09-11T11:02:07;2.08;;;1.20;;
65182;SDS011;51771;51.068;-1.780;2022-09-11T11:04:39;4.15;;;1.50;;
65182;SDS011;51771;51.068;-1.780;2022-09-11T11:07:11;2.17;;;1.30;;
65182;SDS011;51771;51.068;-1.780;2022-09-11T11:09:45;2.85;;;1.10;;
65182;SDS011;51771;51.068;-1.780;2022-09-11T11:13:19;4.00;;;0.70;;
65182;SDS011;51771;51.068;-1.780;2022-09-11T11:23:24;3.95;;;1.20;;
65182;SDS011;51771;51.068;-1.780;2022-09-11T11:26:58;6.32;;;1.38;;
65182;SDS011;51771;51.068;-1.780;2022-09-11T11:29:33;1.30;;;0.73;;
65182;SDS011;51771;51.068;-1.780;2022-09-11T11:31:48;3.08;;;0.70;;
65182;SDS011;51771;51.068;-1.780;2022-09-11T11:34:30;1.85;;;0.80;;
65182;SDS011;51771;51.068;-1.780;2022-09-11T11:39:35;5.78;;;1.02;;
65182;SDS011;51771;51.068;-1.780;2022-09-11T11:42:12;1.02;;;0.90;;
65182;SDS011;51771;51.068;-1.780;2022-09-11T11:44:39;6.03;;;1.75;;
65182;SDS011;51771;51.068;-1.780;2022-09-11T11:47:06;5.05;;;0.77;;
65182;SDS011;51771;51.068;-1.780;2022-09-11T11:52:02;1.65;;;0.98;;
65182;SDS011;51771;51.068;-1.780;2022-09-11T11:54:31;2.95;;;0.90;;
65182;SDS011;51771;51.068;-1.780;2022-09-11T11:57:05;14.25;;;2.00;;
65182;SDS011;51771;51.068;-1.780;2022-09-11T12:09:48;2.88;;;1.00;;
65182;SDS011;51771;51.068;-1.780;2022-09-11T12:12:14;4.35;;;1.13;;
65182;SDS011;51771;51.068;-1.780;2022-09-11T12:14:47;2.90;;;1.15;;
65182;SDS011;51771;51.068;-1.780;2022-09-11T12:17:16;8.43;;;1.20;;
65182;SDS011;51771;51.068;-1.780;2022-09-11T12:22:34;4.22;;;1.10;;
65182;SDS011;51771;51.068;-1.780;2022-09-11T12:25:02;2.42;;;0.90;;
65182;SDS011;51771;51.068;-1.780;2022-09-11T12:30:51;10.48;;;1.42;;
65182;SDS011;51771;51.068;-1.780;2022-09-11T12:35:15;1.70;;;1.20;;
65182;SDS011;51771;51.068;-1.780;2022-09-11T12:37:43;2.83;;;1.10;;
65182;SDS011;51771;51.068;-1.780;2022-09-11T12:40:16;3.60;;;1.13;;
65182;SDS011;51771;51.068;-1.780;2022-09-11T12:42:44;4.32;;;0.80;;
65182;SDS011;51771;51.068;-1.780;2022-09-11T12:45:31;2.60;;;1.00;;
65182;SDS011;51771;51.068;-1.780;2022-09-11T12:48:03;4.60;;;0.98;;
65182;SDS011;51771;51.068;-1.780;2022-09-11T12:50:29;0.87;;;0.87;;
65182;SDS011;51771;51.068;-1.780;2022-09-11T12:52:55;1.08;;;0.90;;
65182;SDS011;51771;51.068;-1.780;2022-09-11T12:57:54;1.98;;;1.63;;
65182;SDS011;51771;51.068;-1.780;2022-09-11T13:00:21;0.80;;;0.68;;
65182;SDS011;51771;51.068;-1.780;2022-09-11T13:02:53;9.68;;;1.58;;
65182;SDS011;51771;51.068;-1.780;2022-09-11T13:05:25;3.53;;;0.98;;
65182;SDS011;51771;51.068;-1.780;2022-09-11T13:07:52;3.70;;;1.45;;
65182;SDS011;51771;51.068;-1.780;2022-09-11T13:10:22;2.75;;;1.40;;
65182;SDS011;51771;51.068;-1.780;2022-09-11T13:12:52;2.05;;;1.20;;
65182;SDS011;51771;51.068;-1.780;2022-09-11T13:15:32;2.05;;;1.10;;
65182;SDS011;51771;51.068;-1.780;2022-09-11T13:17:59;3.88;;;1.13;;
65182;SDS011;51771;51.068;-1.780;2022-09-11T13:20:24;4.05;;;1.23;;
65182;SDS011;51771;51.068;-1.780;2022-09-11T13:22:50;2.27;;;1.20;;
65182;SDS011;51771;51.068;-1.780;2022-09-11T13:27:42;5.05;;;1.45;;
65182;SDS011;51771;51.068;-1.780;2022-09-11T13:30:10;1.27;;;0.85;;
65182;SDS011;51771;51.068;-1.780;2022-09-11T13:32:36;1.55;;;0.95;;
65182;SDS011;51771;51.068;-1.780;2022-09-11T13:35:07;2.80;;;0.90;;
65182;SDS011;51771;51.068;-1.780;2022-09-11T13:37:36;2.07;;;0.77;;
65182;SDS011;51771;51.068;-1.780;2022-09-11T13:40:03;1.45;;;0.68;;
65182;SDS011;51771;51.068;-1.780;2022-09-11T13:42:29;2.08;;;0.95;;
65182;SDS011;51771;51.068;-1.780;2022-09-11T13:44:55;1.50;;;0.80;;
65182;SDS011;51771;51.068;-1.780;2022-09-11T13:47:22;2.92;;;0.90;;
65182;SDS011;51771;51.068;-1.780;2022-09-11T13:49:49;2.97;;;1.20;;
65182;SDS011;51771;51.068;-1.780;2022-09-11T13:52:15;6.35;;;1.00;;
65182;SDS011;51771;51.068;-1.780;2022-09-11T13:54:44;2.35;;;0.85;;
65182;SDS011;51771;51.068;-1.780;2022-09-11T13:57:15;1.33;;;0.63;;
65182;SDS011;51771;51.068;-1.780;2022-09-11T13:59:44;1.00;;;0.90;;
65182;SDS011;51771;51.068;-1.780;2022-09-11T14:04:41;3.75;;;0.93;;
65182;SDS011;51771;51.068;-1.780;2022-09-11T14:07:23;1.92;;;0.80;;
65182;SDS011;51771;51.068;-1.780;2022-09-11T14:09:51;1.25;;;0.90;;
65182;SDS011;51771;51.068;-1.780;2022-09-11T14:12:22;2.80;;;1.05;;
65182;SDS011;51771;51.068;-1.780;2022-09-11T14:14:49;2.55;;;0.60;;
65182;SDS011;51771;51.068;-1.780;2022-09-11T14:17:16;0.95;;;0.60;;
65182;SDS011;51771;51.068;-1.780;2022-09-11T14:19:42;3.70;;;1.33;;
65182;SDS011;51771;51.068;-1.780;2022-09-11T14:22:12;0.75;;;0.70;;
65182;SDS011;51771;51.068;-1.780;2022-09-11T14:24:39;1.70;;;0.63;;
65182;SDS011;51771;51.068;-1.780;2022-09-11T14:29:57;1.15;;;0.73;;
65182;SDS011;51771;51.068;-1.780;2022-09-11T14:34:54;14.45;;;1.45;;
65182;SDS011;51771;51.068;-1.780;2022-09-11T14:37:19;2.70;;;1.20;;
65182;SDS011;51771;51.068;-1.780;2022-09-11T14:39:48;6.18;;;0.85;;
65182;SDS011;51771;51.068;-1.780;2022-09-11T14:42:20;6.90;;;1.10;;
65182;SDS011;51771;51.068;-1.780;2022-09-11T14:44:46;5.63;;;0.75;;
65182;SDS011;51771;51.068;-1.780;2022-09-11T14:47:15;2.63;;;0.83;;
65182;SDS011;51771;51.068;-1.780;2022-09-11T14:49:44;1.27;;;0.82;;
65182;SDS011;51771;51.068;-1.780;2022-09-11T14:52:10;2.83;;;1.27;;
65182;SDS011;51771;51.068;-1.780;2022-09-11T14:54:37;4.25;;;1.10;;
65182;SDS011;51771;51.068;-1.780;2022-09-11T14:57:04;1.30;;;0.68;;
65182;SDS011;51771;51.068;-1.780;2022-09-11T14:59:34;1.13;;;0.70;;
65182;SDS011;51771;51.068;-1.780;2022-09-11T15:01:59;4.37;;;1.40;;
65182;SDS011;51771;51.068;-1.780;2022-09-11T15:04:24;4.07;;;0.90;;
65182;SDS011;51771;51.068;-1.780;2022-09-11T15:06:53;2.83;;;1.10;;
65182;SDS011;51771;51.068;-1.780;2022-09-11T15:09:19;3.03;;;0.95;;
65182;SDS011;51771;51.068;-1.780;2022-09-11T15:11:44;4.15;;;1.10;;
65182;SDS011;51771;51.068;-1.780;2022-09-11T15:14:10;2.67;;;1.00;;
65182;SDS011;51771;51.068;-1.780;2022-09-11T15:16:38;4.50;;;1.08;;
65182;SDS011;51771;51.068;-1.780;2022-09-11T15:19:03;6.97;;;0.90;;
65182;SDS011;51771;51.068;-1.780;2022-09-11T15:21:28;2.43;;;0.73;;
65182;SDS011;51771;51.068;-1.780;2022-09-11T15:23:54;1.97;;;0.90;;
65182;SDS011;51771;51.068;-1.780;2022-09-11T15:26:19;2.55;;;1.05;;
65182;SDS011;51771;51.068;-1.780;2022-09-11T15:28:45;0.80;;;0.60;;
65182;SDS011;51771;51.068;-1.780;2022-09-11T15:31:13;1.25;;;0.93;;
65182;SDS011;51771;51.068;-1.780;2022-09-11T15:33:39;4.68;;;1.15;;
65182;SDS011;51771;51.068;-1.780;2022-09-11T15:36:04;3.40;;;0.93;;
65182;SDS011;51771;51.068;-1.780;2022-09-11T15:38:30;3.50;;;1.10;;
65182;SDS011;51771;51.068;-1.780;2022-09-11T15:40:56;2.00;;;1.33;;
65182;SDS011;51771;51.068;-1.780;2022-09-11T15:43:22;3.65;;;1.00;;
65182;SDS011;51771;51.068;-1.780;2022-09-11T15:45:48;0.93;;;0.73;;
65182;SDS011;51771;51.068;-1.780;2022-09-11T15:48:13;2.30;;;0.90;;
65182;SDS011;51771;51.068;-1.780;2022-09-11T15:50:39;6.57;;;1.88;;
65182;SDS011;51771;51.068;-1.780;2022-09-11T15:53:04;1.47;;;0.83;;
65182;SDS011;51771;51.068;-1.780;2022-09-11T15:55:30;3.95;;;1.15;;
65182;SDS011;51771;51.068;-1.780;2022-09-11T15:57:55;1.50;;;0.70;;
65182;SDS011;51771;51.068;-1.780;2022-09-11T16:00:22;1.02;;;0.88;;
65182;SDS011;51771;51.068;-1.780;2022-09-11T16:02:49;1.97;;;0.70;;
65182;SDS011;51771;51.068;-1.780;2022-09-11T16:05:14;1.88;;;0.98;;
65182;SDS011;51771;51.068;-1.780;2022-09-11T16:07:40;2.53;;;0.93;;
65182;SDS011;51771;51.068;-1.780;2022-09-11T16:10:05;1.50;;;0.68;;
65182;SDS011;51771;51.068;-1.780;2022-09-11T16:12:31;2.80;;;1.58;;
65182;SDS011;51771;51.068;-1.780;2022-09-11T16:14:57;3.28;;;0.90;;
65182;SDS011;51771;51.068;-1.780;2022-09-11T16:17:23;0.85;;;0.60;;
65182;SDS011;51771;51.068;-1.780;2022-09-11T16:19:54;1.35;;;0.80;;
65182;SDS011;51771;51.068;-1.780;2022-09-11T16:22:19;0.93;;;0.63;;
65182;SDS011;51771;51.068;-1.780;2022-09-11T16:24:44;2.47;;;0.63;;
65182;SDS011;51771;51.068;-1.780;2022-09-11T16:27:10;0.67;;;0.57;;
65182;SDS011;51771;51.068;-1.780;2022-09-11T16:29:35;3.57;;;1.33;;
65182;SDS011;51771;51.068;-1.780;2022-09-11T16:32:01;2.30;;;0.77;;
65182;SDS011;51771;51.068;-1.780;2022-09-11T16:34:26;1.25;;;0.80;;
65182;SDS011;51771;51.068;-1.780;2022-09-11T16:36:52;3.78;;;1.20;;
65182;SDS011;51771;51.068;-1.780;2022-09-11T16:39:17;0.60;;;0.60;;
65182;SDS011;51771;51.068;-1.780;2022-09-11T16:41:43;1.33;;;0.90;;
65182;SDS011;51771;51.068;-1.780;2022-09-11T16:44:09;2.00;;;0.95;;
65182;SDS011;51771;51.068;-1.780;2022-09-11T16:46:35;2.13;;;1.08;;
65182;SDS011;51771;51.068;-1.780;2022-09-11T16:49:01;2.72;;;1.30;;
65182;SDS011;51771;51.068;-1.780;2022-09-11T16:51:27;2.05;;;1.33;;
65182;SDS011;51771;51.068;-1.780;2022-09-11T16:53:52;2.88;;;1.00;;
65182;SDS011;51771;51.068;-1.780;2022-09-11T16:56:19;3.22;;;1.10;;
65182;SDS011;51771;51.068;-1.780;2022-09-11T16:58:44;5.82;;;1.30;;
65182;SDS011;51771;51.068;-1.780;2022-09-11T17:01:11;4.93;;;1.42;;
65182;SDS011;51771;51.068;-1.780;2022-09-11T17:03:39;3.88;;;1.27;;
65182;SDS011;51771;51.068;-1.780;2022-09-11T17:06:04;3.42;;;1.00;;
65182;SDS011;51771;51.068;-1.780;2022-09-11T17:08:30;1.27;;;0.80;;
65182;SDS011;51771;51.068;-1.780;2022-09-11T17:10:56;2.75;;;1.83;;
65182;SDS011;51771;51.068;-1.780;2022-09-11T17:13:22;1.83;;;1.10;;
65182;SDS011;51771;51.068;-1.780;2022-09-11T17:15:48;1.70;;;1.20;;
65182;SDS011;51771;51.068;-1.780;2022-09-11T17:18:13;3.38;;;1.48;;
65182;SDS011;51771;51.068;-1.780;2022-09-11T17:20:38;4.67;;;1.27;;
65182;SDS011;51771;51.068;-1.780;2022-09-11T17:23:04;2.63;;;0.90;;
65182;SDS011;51771;51.068;-1.780;2022-09-11T17:25:30;1.42;;;1.25;;
65182;SDS011;51771;51.068;-1.780;2022-09-11T17:27:56;2.92;;;0.90;;
65182;SDS011;51771;51.068;-1.780;2022-09-11T17:30:22;2.00;;;0.93;;
65182;SDS011;51771;51.068;-1.780;2022-09-11T17:32:47;5.10;;;1.33;;
65182;SDS011;51771;51.068;-1.780;2022-09-11T17:35:13;1.87;;;1.03;;
65182;SDS011;51771;51.068;-1.780;2022-09-11T17:37:38;1.40;;;0.90;;
65182;SDS011;51771;51.068;-1.780;2022-09-11T17:40:04;8.20;;;1.52;;
65182;SDS011;51771;51.068;-1.780;2022-09-11T17:42:30;4.47;;;1.17;;
65182;SDS011;51771;51.068;-1.780;2022-09-11T17:44:56;2.90;;;1.33;;
65182;SDS011;51771;51.068;-1.780;2022-09-11T17:47:21;1.15;;;0.98;;
65182;SDS011;51771;51.068;-1.780;2022-09-11T17:49:47;1.57;;;1.17;;
65182;SDS011;51771;51.068;-1.780;2022-09-11T17:52:13;2.35;;;1.27;;
65182;SDS011;51771;51.068;-1.780;2022-09-11T17:54:39;0.95;;;0.95;;
65182;SDS011;51771;51.068;-1.780;2022-09-11T17:57:04;1.88;;;1.10;;
65182;SDS011;51771;51.068;-1.780;2022-09-11T17:59:30;4.03;;;0.98;;
65182;SDS011;51771;51.068;-1.780;2022-09-11T18:01:55;2.07;;;0.80;;
65182;SDS011;51771;51.068;-1.780;2022-09-11T18:04:22;3.63;;;1.60;;
65182;SDS011;51771;51.068;-1.780;2022-09-11T18:06:48;12.83;;;1.67;;
65182;SDS011;51771;51.068;-1.780;2022-09-11T18:09:14;4.82;;;1.35;;
65182;SDS011;51771;51.068;-1.780;2022-09-11T18:11:42;46.55;;;2.17;;
65182;SDS011;51771;51.068;-1.780;2022-09-11T18:14:08;1.60;;;1.23;;
65182;SDS011;51771;51.068;-1.780;2022-09-11T18:16:34;1.30;;;1.20;;
65182;SDS011;51771;51.068;-1.780;2022-09-11T18:19:00;3.38;;;1.63;;
65182;SDS011;51771;51.068;-1.780;2022-09-11T18:21:26;2.40;;;1.48;;
65182;SDS011;51771;51.068;-1.780;2022-09-11T18:23:51;5.45;;;1.63;;
65182;SDS011;51771;51.068;-1.780;2022-09-11T18:26:17;1.40;;;1.30;;
65182;SDS011;51771;51.068;-1.780;2022-09-11T18:28:43;6.43;;;1.20;;
65182;SDS011;51771;51.068;-1.780;2022-09-11T18:31:08;3.47;;;1.70;;
65182;SDS011;51771;51.068;-1.780;2022-09-11T18:33:34;4.72;;;1.65;;
65182;SDS011;51771;51.068;-1.780;2022-09-11T18:36:03;3.23;;;1.50;;
65182;SDS011;51771;51.068;-1.780;2022-09-11T18:38:29;8.68;;;1.73;;
65182;SDS011;51771;51.068;-1.780;2022-09-11T18:40:54;4.53;;;1.52;;
65182;SDS011;51771;51.068;-1.780;2022-09-11T18:43:23;15.82;;;2.40;;
65182;SDS011;51771;51.068;-1.780;2022-09-11T18:45:49;4.88;;;3.05;;
65182;SDS011;51771;51.068;-1.780;2022-09-11T18:48:14;10.87;;;2.90;;
65182;SDS011;51771;51.068;-1.780;2022-09-11T18:50:40;6.90;;;2.58;;
65182;SDS011;51771;51.068;-1.780;2022-09-11T18:53:05;3.57;;;2.40;;
65182;SDS011;51771;51.068;-1.780;2022-09-11T18:55:31;4.32;;;2.65;;
65182;SDS011;51771;51.068;-1.780;2022-09-11T18:57:57;17.05;;;2.78;;
65182;SDS011;51771;51.068;-1.780;2022-09-11T19:00:22;5.60;;;2.65;;
65182;SDS011;51771;51.068;-1.780;2022-09-11T19:02:47;3.97;;;2.80;;
65182;SDS011;51771;51.068;-1.780;2022-09-11T19:05:14;5.60;;;2.40;;
65182;SDS011;51771;51.068;-1.780;2022-09-11T19:07:43;7.25;;;2.28;;
65182;SDS011;51771;51.068;-1.780;2022-09-11T19:10:09;2.92;;;2.20;;
65182;SDS011;51771;51.068;-1.780;2022-09-11T19:12:35;11.50;;;2.50;;
65182;SDS011;51771;51.068;-1.780;2022-09-11T19:15:01;15.52;;;2.80;;
65182;SDS011;51771;51.068;-1.780;2022-09-11T19:17:26;3.55;;;2.50;;
65182;SDS011;51771;51.068;-1.780;2022-09-11T19:19:51;3.80;;;2.13;;
65182;SDS011;51771;51.068;-1.780;2022-09-11T19:22:16;5.23;;;2.70;;
65182;SDS011;51771;51.068;-1.780;2022-09-11T19:24:46;10.45;;;2.20;;
65182;SDS011;51771;51.068;-1.780;2022-09-11T19:27:11;11.30;;;2.23;;
65182;SDS011;51771;51.068;-1.780;2022-09-11T19:29:36;10.33;;;2.40;;
65182;SDS011;51771;51.068;-1.780;2022-09-11T19:32:02;4.33;;;2.90;;
65182;SDS011;51771;51.068;-1.780;2022-09-11T19:34:27;12.90;;;2.30;;
65182;SDS011;51771;51.068;-1.780;2022-09-11T19:36:52;7.13;;;2.23;;
65182;SDS011;51771;51.068;-1.780;2022-09-11T19:39:17;14.25;;;3.13;;
65182;SDS011;51771;51.068;-1.780;2022-09-11T19:41:43;5.70;;;2.70;;
65182;SDS011;51771;51.068;-1.780;2022-09-11T19:44:11;17.40;;;3.60;;
65182;SDS011;51771;51.068;-1.780;2022-09-11T19:46:37;2.75;;;2.55;;
65182;SDS011;51771;51.068;-1.780;2022-09-11T19:49:02;12.13;;;4.38;;
65182;SDS011;51771;51.068;-1.780;2022-09-11T19:51:30;19.48;;;5.63;;
65182;SDS011;51771;51.068;-1.780;2022-09-11T19:53:56;10.38;;;3.78;;
65182;SDS011;51771;51.068;-1.780;2022-09-11T19:56:22;4.60;;;2.85;;
65182;SDS011;51771;51.068;-1.780;2022-09-11T19:58:48;11.02;;;3.67;;
65182;SDS011;51771;51.068;-1.780;2022-09-11T20:01:15;7.68;;;3.70;;
65182;SDS011;51771;51.068;-1.780;2022-09-11T20:03:43;4.85;;;3.53;;
65182;SDS011;51771;51.068;-1.780;2022-09-11T20:06:09;7.90;;;4.13;;
65182;SDS011;51771;51.068;-1.780;2022-09-11T20:08:35;8.90;;;4.45;;
65182;SDS011;51771;51.068;-1.780;2022-09-11T20:11:02;12.95;;;4.45;;
65182;SDS011;51771;51.068;-1.780;2022-09-11T20:13:27;9.75;;;2.97;;
65182;SDS011;51771;51.068;-1.780;2022-09-11T20:15:53;9.32;;;3.78;;
65182;SDS011;51771;51.068;-1.780;2022-09-11T20:18:18;4.17;;;3.70;;
65182;SDS011;51771;51.068;-1.780;2022-09-11T20:20:43;8.07;;;3.65;;
65182;SDS011;51771;51.068;-1.780;2022-09-11T20:23:09;9.73;;;3.73;;
65182;SDS011;51771;51.068;-1.780;2022-09-11T20:25:34;7.47;;;3.80;;
65182;SDS011;51771;51.068;-1.780;2022-09-11T20:28:00;6.70;;;4.70;;
65182;SDS011;51771;51.068;-1.780;2022-09-11T20:30:25;6.20;;;4.22;;
65182;SDS011;51771;51.068;-1.780;2022-09-11T20:32:50;11.15;;;4.68;;
65182;SDS011;51771;51.068;-1.780;2022-09-11T20:35:16;10.98;;;5.00;;
65182;SDS011;51771;51.068;-1.780;2022-09-11T20:37:42;8.47;;;4.07;;
65182;SDS011;51771;51.068;-1.780;2022-09-11T20:40:07;4.73;;;4.10;;
65182;SDS011;51771;51.068;-1.780;2022-09-11T20:42:33;6.75;;;4.60;;
65182;SDS011;51771;51.068;-1.780;2022-09-11T20:44:58;16.50;;;5.13;;
65182;SDS011;51771;51.068;-1.780;2022-09-11T20:47:23;5.37;;;4.03;;
65182;SDS011;51771;51.068;-1.780;2022-09-11T20:49:49;9.32;;;4.80;;
65182;SDS011;51771;51.068;-1.780;2022-09-11T20:52:14;4.60;;;4.17;;
65182;SDS011;51771;51.068;-1.780;2022-09-11T20:54:39;6.93;;;3.78;;
65182;SDS011;51771;51.068;-1.780;2022-09-11T20:57:05;6.22;;;4.50;;
65182;SDS011;51771;51.068;-1.780;2022-09-11T20:59:30;8.38;;;4.63;;
65182;SDS011;51771;51.068;-1.780;2022-09-11T21:01:55;11.32;;;5.95;;
65182;SDS011;51771;51.068;-1.780;2022-09-11T21:04:21;19.10;;;5.53;;
65182;SDS011;51771;51.068;-1.780;2022-09-11T21:06:48;10.18;;;5.97;;
65182;SDS011;51771;51.068;-1.780;2022-09-11T21:09:13;11.35;;;6.35;;
65182;SDS011;51771;51.068;-1.780;2022-09-11T21:11:39;16.05;;;6.63;;
65182;SDS011;51771;51.068;-1.780;2022-09-11T21:14:06;9.55;;;6.72;;
65182;SDS011;51771;51.068;-1.780;2022-09-11T21:16:31;13.45;;;8.13;;
65182;SDS011;51771;51.068;-1.780;2022-09-11T21:18:57;12.52;;;9.20;;
65182;SDS011;51771;51.068;-1.780;2022-09-11T21:21:23;12.30;;;8.75;;
65182;SDS011;51771;51.068;-1.780;2022-09-11T21:23:52;14.52;;;9.23;;
65182;SDS011;51771;51.068;-1.780;2022-09-11T21:26:17;19.52;;;10.57;;
65182;SDS011;51771;51.068;-1.780;2022-09-11T21:28:43;25.05;;;10.98;;
